Time;durP1;ratioP1;P1;durP2;ratioP2;P2;SDS_P1;SDS_P2;PMS_P1;PMS_P2;Temp;Humidity;BMP_temperature;BMP_pressure;BME280_temperature;BME280_humidity;BME280_pressure;Samples;Min_cycle;Max_cycle;Signal;HPM_P1;HPM_P2
2022/12/09 00:01:32;;;;;;;34.40;15.70;;;-0.40;99.90;;;;;;5092761;27;20578;-87
2022/12/09 00:03:58;;;;;;;31.13;14.57;;;-0.50;99.90;;;;;;5111026;27;20050;-88
2022/12/09 00:06:26;;;;;;;26.58;14.30;;;-0.50;99.90;;;;;;5094249;27;20074;-87
2022/12/09 00:08:52;;;;;;;29.65;15.75;;;-0.60;99.90;;;;;;5110936;27;20187;-87
2022/12/09 00:11:20;;;;;;;28.23;14.70;;;-0.70;99.90;;;;;;5111724;27;20126;-87
2022/12/09 00:13:54;;;;;;;25.30;14.15;;;-0.70;99.90;;;;;;5110332;27;20039;-86
2022/12/09 00:16:20;;;;;;;28.60;13.77;;;-0.70;99.90;;;;;;5094851;28;20054;-87
2022/12/09 00:18:47;;;;;;;30.70;14.48;;;-0.70;99.90;;;;;;5077014;27;20043;-87
2022/12/09 00:21:13;;;;;;;31.10;15.20;;;-0.60;99.90;;;;;;5110803;27;20084;-88
2022/12/09 00:23:39;;;;;;;30.52;13.73;;;-0.60;99.90;;;;;;5093613;27;20039;-87
2022/12/09 00:26:05;;;;;;;30.52;14.52;;;-0.60;99.90;;;;;;5110800;27;20047;-86
2022/12/09 00:28:31;;;;;;;29.13;14.20;;;-0.60;99.90;;;;;;5078472;27;20130;-88
2022/12/09 00:31:00;;;;;;;28.85;15.27;;;-0.70;99.90;;;;;;5076868;28;20046;-87
2022/12/09 00:33:28;;;;;;;28.00;14.07;;;-0.60;99.90;;;;;;5112097;28;20406;-87
2022/12/09 00:35:53;;;;;;;28.52;14.48;;;-0.70;99.90;;;;;;5108950;28;20046;-87
2022/12/09 00:38:19;;;;;;;25.20;13.02;;;-0.70;99.90;;;;;;5076485;28;20398;-87
2022/12/09 00:40:45;;;;;;;26.52;13.88;;;-0.70;99.90;;;;;;5094584;27;20043;-87
2022/12/09 00:43:10;;;;;;;27.20;14.02;;;-0.70;99.90;;;;;;5096756;27;20047;-87
2022/12/09 00:45:36;;;;;;;29.13;13.85;;;-0.70;99.90;;;;;;5097388;27;20524;-87
2022/12/09 00:48:02;;;;;;;30.63;13.32;;;-0.20;99.90;;;;;;5095835;27;20968;-86
2022/12/09 00:50:28;;;;;;;28.10;12.75;;;0.70;99.90;;;;;;5079980;27;20096;-86
2022/12/09 00:52:54;;;;;;;24.52;11.73;;;-0.50;99.90;;;;;;5079824;27;20047;-87
2022/12/09 00:55:19;;;;;;;23.65;11.90;;;-0.40;99.90;;;;;;5113866;27;20057;-87
2022/12/09 00:57:45;;;;;;;23.40;12.93;;;-0.40;99.90;;;;;;5095782;27;20046;-87
2022/12/09 01:00:11;;;;;;;23.10;12.05;;;-0.40;99.90;;;;;;5096926;27;20055;-88
2022/12/09 01:02:37;;;;;;;22.15;12.27;;;-0.40;99.90;;;;;;5078963;27;20058;-88
2022/12/09 01:05:03;;;;;;;28.83;12.48;;;-0.30;99.90;;;;;;5112760;27;20100;-88
2022/12/09 01:07:29;;;;;;;25.48;13.05;;;-0.40;99.90;;;;;;5095150;27;20051;-86
2022/12/09 01:09:55;;;;;;;24.48;11.77;;;-0.30;99.90;;;;;;5111873;27;20134;-87
2022/12/09 01:12:20;;;;;;;24.02;11.75;;;-0.30;99.90;;;;;;5095279;27;20089;-87
2022/12/09 01:14:46;;;;;;;25.83;11.85;;;-0.30;99.90;;;;;;5112267;27;20042;-88
2022/12/09 01:17:12;;;;;;;22.75;10.98;;;-0.40;99.90;;;;;;5094616;27;20035;-87
2022/12/09 01:19:39;;;;;;;23.63;11.75;;;-0.40;99.90;;;;;;5094455;27;20058;-87
2022/12/09 01:22:05;;;;;;;21.15;11.45;;;-0.40;99.90;;;;;;5094251;27;20164;-87
2022/12/09 01:24:30;;;;;;;17.77;10.88;;;-0.50;99.90;;;;;;5095475;27;20176;-87
2022/12/09 01:26:56;;;;;;;26.02;11.93;;;-0.50;99.90;;;;;;5094364;27;20394;-87
2022/12/09 01:29:22;;;;;;;22.08;11.43;;;-0.50;99.90;;;;;;5094788;27;20107;-88
2022/12/09 01:31:47;;;;;;;26.23;12.25;;;-0.50;99.90;;;;;;5111079;27;20474;-86
2022/12/09 01:34:13;;;;;;;20.95;11.55;;;-0.40;99.90;;;;;;5111359;27;20054;-87
2022/12/09 01:36:39;;;;;;;20.85;10.68;;;-0.50;99.90;;;;;;5094379;27;20043;-87
2022/12/09 01:39:04;;;;;;;26.52;9.93;;;-0.50;99.90;;;;;;5094238;27;20065;-87
2022/12/09 01:41:30;;;;;;;23.83;11.55;;;-0.50;99.90;;;;;;5110436;27;20132;-88
2022/12/09 01:44:14;;;;;;;23.58;12.20;;;-0.50;99.90;;;;;;5111227;27;20035;-88
2022/12/09 01:46:41;;;;;;;24.30;11.85;;;-0.50;99.90;;;;;;5095375;27;20043;-87
2022/12/09 01:49:09;;;;;;;29.30;11.98;;;0.70;99.90;;;;;;5110814;27;20123;-87
2022/12/09 01:51:36;;;;;;;23.33;11.27;;;-0.60;99.90;;;;;;5129636;27;20078;-88
2022/12/09 01:54:02;;;;;;;22.13;11.68;;;-0.60;99.90;;;;;;5094584;27;20460;-87
2022/12/09 01:56:33;;;;;;;26.73;11.90;;;-0.50;99.90;;;;;;5110830;27;20460;-87
2022/12/09 01:59:08;;;;;;;26.10;12.63;;;-0.60;99.90;;;;;;5094027;27;20483;-87
2022/12/09 02:01:34;;;;;;;23.90;11.38;;;-0.50;99.90;;;;;;5093904;27;20101;-87
2022/12/09 02:04:01;;;;;;;24.00;12.07;;;-0.60;99.90;;;;;;5077736;27;20431;-88
2022/12/09 02:06:26;;;;;;;22.48;11.98;;;-0.60;99.90;;;;;;5093842;27;20360;-87
2022/12/09 02:08:53;;;;;;;22.20;11.45;;;-0.60;99.90;;;;;;5110866;27;20339;-87
2022/12/09 02:11:28;;;;;;;21.90;11.32;;;-0.60;99.90;;;;;;5093696;27;20043;-86
2022/12/09 02:14:00;;;;;;;23.20;11.43;;;-0.70;99.90;;;;;;5093691;27;20048;-86
2022/12/09 02:16:28;;;;;;;20.10;10.18;;;-0.70;99.90;;;;;;5110553;27;20039;-87
2022/12/09 02:19:04;;;;;;;21.50;11.85;;;-0.60;99.90;;;;;;5111018;27;20432;-87
2022/12/09 02:21:41;;;;;;;24.52;11.50;;;-0.60;99.90;;;;;;5093220;27;20095;-87
2022/12/09 02:24:32;;;;;;;20.23;10.45;;;-1.60;99.90;;;;;;5110156;27;20135;-87
2022/12/09 02:27:17;;;;;;;20.50;11.07;;;-0.50;99.90;;;;;;5129011;27;20486;-87
2022/12/09 02:30:04;;;;;;;19.45;10.52;;;-0.50;99.90;;;;;;5110650;27;20051;-87
2022/12/09 02:33:02;;;;;;;24.35;11.02;;;-0.50;99.90;;;;;;5093147;27;20035;-88
2022/12/09 02:35:43;;;;;;;19.88;9.85;;;-0.50;99.90;;;;;;5111959;27;20062;-87
2022/12/09 02:38:14;;;;;;;24.67;11.30;;;-0.60;99.90;;;;;;5109842;27;20039;-87
2022/12/09 02:40:56;;;;;;;22.55;10.70;;;-0.60;99.90;;;;;;5109658;27;20138;-87
2022/12/09 02:43:27;;;;;;;23.50;11.38;;;-0.60;99.90;;;;;;5092864;27;20183;-87
2022/12/09 02:45:54;;;;;;;21.92;12.15;;;-0.50;99.90;;;;;;5110230;27;20043;-86
2022/12/09 02:48:27;;;;;;;21.23;10.40;;;-0.50;99.90;;;;;;5109880;27;20050;-87
2022/12/09 02:50:56;;;;;;;20.83;11.73;;;-0.50;99.90;;;;;;5092611;27;20104;-87
2022/12/09 02:53:23;;;;;;;22.23;10.32;;;-0.50;99.90;;;;;;5093149;27;20045;-88
2022/12/09 02:55:52;;;;;;;21.33;10.05;;;-0.50;99.90;;;;;;5076084;27;20041;-86
2022/12/09 02:58:17;;;;;;;26.52;10.88;;;-0.50;99.90;;;;;;5109942;27;20048;-87
2022/12/09 03:00:43;;;;;;;20.75;10.40;;;-0.50;99.90;;;;;;5092073;27;20039;-86
2022/12/09 03:03:13;;;;;;;20.52;9.95;;;-0.50;99.90;;;;;;5075193;27;20046;-87
2022/12/09 03:05:47;;;;;;;24.45;10.88;;;-0.50;99.90;;;;;;5109390;27;20358;-87
2022/12/09 03:08:37;;;;;;;20.83;10.07;;;-0.50;99.90;;;;;;5092441;27;20125;-86
2022/12/09 03:11:10;;;;;;;20.55;10.98;;;-0.40;99.90;;;;;;5080800;27;20057;-87
2022/12/09 03:13:38;;;;;;;22.80;9.50;;;-0.40;99.90;;;;;;5109433;27;20066;-86
2022/12/09 03:16:16;;;;;;;20.67;10.13;;;-0.40;99.90;;;;;;5108948;27;20528;-86
2022/12/09 03:18:47;;;;;;;20.45;10.02;;;-0.40;99.90;;;;;;5108672;27;20043;-87
2022/12/09 03:21:16;;;;;;;20.33;10.45;;;-0.50;99.90;;;;;;5109181;27;20413;-86
2022/12/09 03:23:45;;;;;;;21.48;9.80;;;-0.50;99.90;;;;;;5092600;27;20078;-87
2022/12/09 03:26:14;;;;;;;19.10;11.07;;;-0.50;99.90;;;;;;5094287;27;20039;-86
2022/12/09 03:28:45;;;;;;;23.08;10.68;;;-0.50;99.90;;;;;;5112128;27;20351;-86
2022/12/09 03:31:16;;;;;;;23.40;10.70;;;-0.50;99.90;;;;;;5112130;27;20047;-86
2022/12/09 03:33:46;;;;;;;25.30;12.52;;;-0.50;99.90;;;;;;5112863;27;20130;-85
2022/12/09 03:36:14;;;;;;;19.88;10.43;;;-0.60;99.90;;;;;;5111367;27;20055;-86
2022/12/09 03:38:43;;;;;;;25.15;10.13;;;-0.60;99.90;;;;;;5109536;27;20066;-88
2022/12/09 03:41:28;;;;;;;19.42;10.05;;;-0.60;99.90;;;;;;5109088;27;20108;-87
2022/12/09 03:44:06;;;;;;;25.23;10.98;;;-0.60;99.90;;;;;;5109042;27;20039;-87
2022/12/09 03:46:31;;;;;;;20.50;10.32;;;-0.60;99.90;;;;;;5092388;27;20043;-86
2022/12/09 03:48:57;;;;;;;22.02;10.23;;;-0.70;99.90;;;;;;5075211;27;20054;-87
2022/12/09 03:51:29;;;;;;;22.55;11.70;;;-0.70;99.90;;;;;;5092532;27;20043;-86
2022/12/09 03:54:01;;;;;;;18.50;9.82;;;-0.70;99.90;;;;;;5092382;27;20184;-86
2022/12/09 03:56:31;;;;;;;17.43;10.33;;;-0.70;99.90;;;;;;5108130;27;20126;-87
2022/12/09 03:59:00;;;;;;;23.88;10.77;;;-0.70;99.90;;;;;;5108410;27;20158;-86
2022/12/09 04:01:28;;;;;;;21.42;10.57;;;-0.70;99.90;;;;;;5108487;27;20407;-86
2022/12/09 04:03:55;;;;;;;23.48;10.35;;;-0.70;99.90;;;;;;5108219;27;20039;-87
2022/12/09 04:06:21;;;;;;;21.55;11.95;;;-0.70;99.90;;;;;;5108266;27;20051;-85
2022/12/09 04:08:47;;;;;;;20.88;10.35;;;-0.70;99.90;;;;;;5109114;28;20539;-86
2022/12/09 04:11:13;;;;;;;18.65;11.00;;;-0.80;99.90;;;;;;5091567;27;20100;-85
2022/12/09 04:13:38;;;;;;;21.73;10.88;;;-0.80;99.90;;;;;;5090965;27;20055;-86
2022/12/09 04:16:04;;;;;;;19.98;10.32;;;-0.80;99.90;;;;;;5108573;27;20446;-87
2022/12/09 04:18:30;;;;;;;21.83;11.55;;;-0.80;99.90;;;;;;5074101;27;20047;-87
2022/12/09 04:20:56;;;;;;;21.00;10.98;;;-0.80;99.90;;;;;;5108449;27;20039;-86
2022/12/09 04:23:21;;;;;;;24.58;11.13;;;0.30;99.90;;;;;;5091543;28;20511;-86
2022/12/09 04:25:48;;;;;;;22.45;12.23;;;-1.60;99.90;;;;;;5091298;27;20121;-87
2022/12/09 04:28:13;;;;;;;22.60;12.18;;;-0.90;99.90;;;;;;5109245;28;20386;-88
2022/12/09 04:30:44;;;;;;;22.25;11.02;;;-0.90;99.90;;;;;;5091118;28;20043;-87
2022/12/09 04:33:10;;;;;;;22.60;10.90;;;-1.00;99.90;;;;;;5091348;28;20039;-86
2022/12/09 04:35:36;;;;;;;21.70;11.40;;;-1.00;99.90;;;;;;5108415;28;20061;-86
2022/12/09 04:38:02;;;;;;;22.58;11.20;;;-1.00;99.90;;;;;;5074220;28;20524;-86
2022/12/09 04:40:27;;;;;;;21.88;11.95;;;-1.00;99.90;;;;;;5109305;28;20046;-88
2022/12/09 04:42:53;;;;;;;21.92;11.50;;;-1.10;99.90;;;;;;5111077;28;20071;-88
2022/12/09 04:45:19;;;;;;;21.38;12.27;;;-1.10;99.90;;;;;;5110413;28;20119;-86
2022/12/09 04:47:44;;;;;;;20.85;11.48;;;-1.10;99.90;;;;;;5093498;28;20095;-86
2022/12/09 04:50:10;;;;;;;21.17;10.63;;;-1.00;99.90;;;;;;5094098;28;20096;-86
2022/12/09 04:52:36;;;;;;;25.10;12.27;;;-1.00;99.90;;;;;;5110427;28;20050;-87
2022/12/09 04:55:02;;;;;;;29.77;11.68;;;-0.90;99.90;;;;;;5077462;28;20035;-87
2022/12/09 04:57:30;;;;;;;23.17;11.40;;;-0.80;99.90;;;;;;5095314;28;20043;-86
2022/12/09 04:59:56;;;;;;;22.73;11.80;;;-0.80;99.90;;;;;;5077015;28;20039;-86
2022/12/09 05:02:22;;;;;;;22.40;10.65;;;-0.70;99.90;;;;;;5093451;28;20127;-87
2022/12/09 05:04:48;;;;;;;24.75;10.93;;;-0.70;99.90;;;;;;5110439;28;20047;-88
2022/12/09 05:07:13;;;;;;;23.10;11.32;;;-0.70;99.90;;;;;;5093918;28;20049;-87
2022/12/09 05:09:39;;;;;;;21.60;10.57;;;-0.70;99.90;;;;;;5092271;28;20055;-86
2022/12/09 05:12:05;;;;;;;22.45;11.13;;;-0.80;99.90;;;;;;5074553;28;20810;-86
2022/12/09 05:14:31;;;;;;;20.13;10.57;;;-0.80;99.90;;;;;;5090714;28;20050;-86
2022/12/09 05:16:56;;;;;;;25.35;12.20;;;-0.80;99.90;;;;;;5090978;28;20039;-86
2022/12/09 05:19:22;;;;;;;26.83;11.75;;;-0.80;99.90;;;;;;5091296;28;20043;-87
2022/12/09 05:21:48;;;;;;;19.95;11.02;;;-0.70;99.90;;;;;;5107974;28;20053;-87
2022/12/09 05:24:14;;;;;;;23.90;11.95;;;-0.80;99.90;;;;;;5090735;28;20039;-88
2022/12/09 05:26:39;;;;;;;27.35;12.00;;;-0.80;99.90;;;;;;5093500;27;20035;-87
2022/12/09 05:29:05;;;;;;;23.17;11.23;;;-0.80;99.90;;;;;;5094098;27;20043;-85
2022/12/09 05:31:31;;;;;;;22.30;11.68;;;-0.80;99.90;;;;;;5077124;27;20081;-85
2022/12/09 05:33:57;;;;;;;24.58;11.88;;;-0.80;99.90;;;;;;5111552;27;20042;-85
2022/12/09 05:36:24;;;;;;;22.48;11.93;;;0.40;99.90;;;;;;5111291;27;20045;-85
2022/12/09 05:38:50;;;;;;;24.98;13.05;;;-0.70;99.90;;;;;;5094627;27;20047;-89
2022/12/09 05:41:17;;;;;;;30.13;12.85;;;-0.70;99.90;;;;;;5111504;27;20039;-84
2022/12/09 05:43:43;;;;;;;22.92;11.93;;;-0.60;99.90;;;;;;5094058;27;20083;-85
2022/12/09 05:46:09;;;;;;;26.40;12.65;;;-0.60;99.90;;;;;;5077219;27;20123;-84
2022/12/09 05:48:35;;;;;;;27.35;11.85;;;-0.60;99.90;;;;;;5111463;27;20486;-85
2022/12/09 05:51:25;;;;;;;22.73;12.18;;;-0.60;99.90;;;;;;5093840;27;20118;-85
2022/12/09 05:53:51;;;;;;;21.50;11.38;;;-0.60;99.90;;;;;;5110809;27;20047;-85
2022/12/09 05:56:18;;;;;;;20.23;11.55;;;-0.60;99.90;;;;;;5093710;27;20066;-85
2022/12/09 05:58:44;;;;;;;25.90;11.75;;;-0.70;99.90;;;;;;5110455;27;20088;-85
2022/12/09 06:01:11;;;;;;;26.65;12.02;;;-0.40;99.90;;;;;;5110177;27;20067;-84
2022/12/09 06:03:36;;;;;;;22.52;11.70;;;-0.40;99.90;;;;;;5093767;27;20126;-87
2022/12/09 06:06:11;;;;;;;21.88;12.30;;;-0.70;99.90;;;;;;5076591;27;20094;-85
2022/12/09 06:08:38;;;;;;;22.85;11.40;;;-0.70;99.90;;;;;;5110550;27;20108;-91
2022/12/09 06:11:07;;;;;;;23.45;11.35;;;0.20;99.90;;;;;;5110322;27;20049;-86
2022/12/09 06:13:33;;;;;;;25.02;12.75;;;-0.70;99.90;;;;;;5110070;27;20043;-85
2022/12/09 06:16:05;;;;;;;21.38;11.10;;;-0.70;99.90;;;;;;5075465;27;20122;-86
2022/12/09 06:18:31;;;;;;;19.23;10.43;;;-0.80;99.90;;;;;;5092941;27;20050;-86
2022/12/09 06:20:57;;;;;;;25.20;11.90;;;-0.80;99.90;;;;;;5109711;27;20043;-85
2022/12/09 06:23:23;;;;;;;19.25;10.07;;;-0.90;99.90;;;;;;5092877;27;20073;-83
2022/12/09 06:25:49;;;;;;;18.77;10.77;;;-0.90;99.90;;;;;;5093043;27;20043;-82
2022/12/09 06:28:15;;;;;;;22.65;11.38;;;-1.00;99.90;;;;;;5093213;27;20054;-83
2022/12/09 06:30:40;;;;;;;23.98;10.88;;;-0.90;99.90;;;;;;5092756;27;20427;-83
2022/12/09 06:33:07;;;;;;;23.98;11.23;;;-0.90;99.90;;;;;;5075698;27;20660;-83
2022/12/09 06:35:32;;;;;;;27.75;10.88;;;-1.00;99.90;;;;;;5108959;27;20039;-85
2022/12/09 06:37:58;;;;;;;25.98;10.60;;;-1.00;99.90;;;;;;5108292;27;20409;-86
2022/12/09 06:40:24;;;;;;;22.60;10.68;;;-1.10;99.90;;;;;;5109122;27;20050;-85
2022/12/09 06:42:50;;;;;;;23.02;11.02;;;0.20;99.90;;;;;;5075145;27;20539;-85
2022/12/09 06:45:19;;;;;;;23.80;11.10;;;-1.10;99.90;;;;;;5092195;27;20054;-86
2022/12/09 06:47:46;;;;;;;19.75;10.93;;;-1.20;99.90;;;;;;5091909;27;20046;-85
2022/12/09 06:50:12;;;;;;;21.17;10.55;;;-1.20;99.90;;;;;;5091966;27;20397;-84
2022/12/09 06:52:39;;;;;;;20.85;10.70;;;-1.20;99.90;;;;;;5108670;27;20091;-87
2022/12/09 06:55:06;;;;;;;25.27;13.25;;;-1.10;99.90;;;;;;5091470;27;20427;-86
2022/12/09 06:57:32;;;;;;;30.52;15.73;;;-1.10;99.90;;;;;;5091818;27;20126;-86
2022/12/09 06:59:58;;;;;;;27.70;13.30;;;-1.20;99.90;;;;;;5091567;27;20075;-87
2022/12/09 07:02:23;;;;;;;22.08;11.60;;;-1.20;99.90;;;;;;5091906;27;20398;-86
2022/12/09 07:04:53;;;;;;;21.50;11.50;;;-1.20;99.90;;;;;;5108804;27;20047;-86
2022/12/09 07:07:19;;;;;;;24.73;11.23;;;-1.20;99.90;;;;;;5074162;27;20047;-86
2022/12/09 07:09:45;;;;;;;24.52;12.38;;;-1.20;99.90;;;;;;5091286;27;20099;-86
2022/12/09 07:12:11;;;;;;;22.45;11.15;;;-1.10;99.90;;;;;;5107896;27;20039;-86
2022/12/09 07:14:36;;;;;;;22.38;11.23;;;-1.00;99.90;;;;;;5074465;27;20047;-86
2022/12/09 07:17:03;;;;;;;29.65;13.40;;;-1.00;99.90;;;;;;5074238;27;20043;-86
2022/12/09 07:19:29;;;;;;;21.52;11.73;;;-1.00;99.90;;;;;;5108896;27;20050;-86
2022/12/09 07:21:56;;;;;;;25.75;11.88;;;0.10;99.90;;;;;;5090932;27;20051;-86
2022/12/09 07:24:22;;;;;;;27.85;12.80;;;-1.00;99.90;;;;;;5091452;27;20467;-86
2022/12/09 07:26:48;;;;;;;22.92;11.32;;;-1.00;99.90;;;;;;5090772;27;20100;-86
2022/12/09 07:29:13;;;;;;;24.60;12.13;;;-1.00;99.90;;;;;;5108691;27;20397;-86
2022/12/09 07:31:39;;;;;;;26.73;11.75;;;-0.90;99.90;;;;;;5107867;27;20131;-86
2022/12/09 07:34:05;;;;;;;21.90;11.38;;;-0.90;99.90;;;;;;5125862;27;20058;-86
2022/12/09 07:36:33;;;;;;;26.55;13.05;;;-0.90;99.90;;;;;;5107849;27;20474;-86
2022/12/09 07:39:01;;;;;;;30.05;13.07;;;-1.00;99.90;;;;;;5090562;27;20031;-86
2022/12/09 07:41:27;;;;;;;23.88;12.35;;;0.20;99.90;;;;;;5107549;27;20043;-86
2022/12/09 07:43:53;;;;;;;26.65;12.65;;;-0.90;99.90;;;;;;5090915;27;20239;-87
2022/12/09 07:46:20;;;;;;;23.60;13.63;;;-0.90;99.90;;;;;;5090363;27;20490;-87
2022/12/09 07:48:46;;;;;;;33.92;14.02;;;-0.90;99.90;;;;;;5107336;27;20050;-86
2022/12/09 07:51:12;;;;;;;29.58;13.50;;;-0.80;99.90;;;;;;5090798;27;20039;-86
2022/12/09 07:53:38;;;;;;;32.55;15.35;;;-0.80;99.90;;;;;;5107830;27;20043;-86
2022/12/09 07:56:10;;;;;;;31.15;14.35;;;-0.60;99.90;;;;;;5090546;27;20414;-86
2022/12/09 07:58:36;;;;;;;37.88;15.30;;;-0.70;99.90;;;;;;5107317;27;20495;-86
2022/12/09 08:01:11;;;;;;;35.22;16.85;;;-0.60;99.90;;;;;;5089941;27;20046;-86
2022/12/09 08:03:38;;;;;;;32.95;17.80;;;-0.60;99.90;;;;;;5090057;27;20043;-86
2022/12/09 08:06:04;;;;;;;35.05;17.10;;;-0.50;99.90;;;;;;5103866;28;20510;-86
2022/12/09 08:08:31;;;;;;;35.33;17.23;;;-0.40;99.90;;;;;;5103458;28;20043;-86
2022/12/09 08:11:08;;;;;;;43.80;18.83;;;-0.30;99.90;;;;;;5070220;28;20085;-86
2022/12/09 08:13:35;;;;;;;37.13;18.10;;;-0.30;99.90;;;;;;5087255;28;20043;-86
2022/12/09 08:16:05;;;;;;;41.13;19.05;;;-0.30;99.90;;;;;;5086542;28;20199;-87
2022/12/09 08:18:32;;;;;;;42.72;19.77;;;-0.20;99.90;;;;;;5086843;28;20204;-86
2022/12/09 08:21:02;;;;;;;33.85;17.80;;;-0.10;99.90;;;;;;5086565;28;20130;-87
2022/12/09 08:23:27;;;;;;;43.50;19.55;;;0.00;99.90;;;;;;5103898;28;20040;-86
2022/12/09 08:25:55;;;;;;;43.33;19.63;;;0.00;99.90;;;;;;5103567;28;20444;-86
2022/12/09 08:28:21;;;;;;;39.22;19.27;;;0.00;99.90;;;;;;5103613;28;20482;-86
2022/12/09 08:30:47;;;;;;;44.55;20.48;;;0.10;99.90;;;;;;5103704;28;20131;-83
2022/12/09 08:33:13;;;;;;;34.67;17.40;;;0.10;99.90;;;;;;5103377;28;20130;-84
2022/12/09 08:35:38;;;;;;;48.63;20.00;;;0.20;99.90;;;;;;5086263;28;20058;-86
2022/12/09 08:38:04;;;;;;;40.40;19.30;;;0.30;99.90;;;;;;5103234;28;20070;-85
2022/12/09 08:40:30;;;;;;;35.28;18.05;;;0.30;99.90;;;;;;5105252;28;20360;-85
2022/12/09 08:42:55;;;;;;;43.58;20.67;;;0.40;99.90;;;;;;5086291;28;20048;-84
2022/12/09 08:45:21;;;;;;;41.15;19.65;;;0.40;99.90;;;;;;5104075;28;20082;-87
2022/12/09 08:47:47;;;;;;;43.15;21.40;;;0.50;99.90;;;;;;5070046;28;20173;-88
2022/12/09 08:50:13;;;;;;;43.53;18.85;;;0.60;99.90;;;;;;5103261;28;20071;-88
2022/12/09 08:52:39;;;;;;;41.65;18.42;;;0.60;99.90;;;;;;5069657;28;20043;-88
2022/12/09 08:55:05;;;;;;;40.70;20.73;;;0.60;99.90;;;;;;5086845;28;20126;-88
2022/12/09 08:57:31;;;;;;;34.97;18.13;;;0.60;99.90;;;;;;5086503;28;20040;-87
2022/12/09 08:59:57;;;;;;;37.45;19.63;;;0.60;99.90;;;;;;5102897;28;20044;-88
2022/12/09 09:02:23;;;;;;;38.25;18.20;;;0.60;99.90;;;;;;5073227;28;20047;-86
2022/12/09 09:04:48;;;;;;;39.13;19.35;;;0.60;99.90;;;;;;5109378;27;20138;-87
2022/12/09 09:07:14;;;;;;;33.53;17.27;;;0.70;99.90;;;;;;5110414;27;20101;-87
2022/12/09 09:09:40;;;;;;;34.60;18.17;;;0.70;99.90;;;;;;5093324;27;20031;-86
2022/12/09 09:12:06;;;;;;;32.15;17.30;;;0.70;99.90;;;;;;5093538;27;20043;-85
2022/12/09 09:14:32;;;;;;;37.33;17.92;;;0.80;99.90;;;;;;5110556;27;20075;-85
2022/12/09 09:16:58;;;;;;;37.70;19.15;;;0.80;99.90;;;;;;5093373;27;20129;-86
2022/12/09 09:19:24;;;;;;;39.67;19.02;;;0.90;99.90;;;;;;5093355;27;20092;-85
2022/12/09 09:21:51;;;;;;;42.20;19.98;;;0.90;99.90;;;;;;5110203;27;20494;-84
2022/12/09 09:24:20;;;;;;;38.40;19.35;;;1.40;99.90;;;;;;5110591;27;20043;-85
2022/12/09 09:26:46;;;;;;;39.35;20.00;;;0.90;99.90;;;;;;5110228;27;20498;-84
2022/12/09 09:29:14;;;;;;;42.85;20.40;;;1.50;99.90;;;;;;5110806;27;20394;-85
2022/12/09 09:31:40;;;;;;;43.10;20.13;;;1.00;99.90;;;;;;5093531;27;20470;-84
2022/12/09 09:34:06;;;;;;;36.60;18.42;;;1.00;99.90;;;;;;5110857;27;20043;-83
2022/12/09 09:36:32;;;;;;;33.13;17.50;;;0.90;99.90;;;;;;5110876;27;20043;-83
2022/12/09 09:38:58;;;;;;;36.75;18.55;;;0.90;99.90;;;;;;5093704;27;20088;-83
2022/12/09 09:41:32;;;;;;;32.30;17.38;;;0.90;99.90;;;;;;5077059;27;20070;-83
2022/12/09 09:43:58;;;;;;;36.70;18.25;;;0.80;99.90;;;;;;5093811;27;20464;-84
2022/12/09 09:46:34;;;;;;;35.80;17.67;;;0.80;99.90;;;;;;5110211;27;20555;-83
2022/12/09 09:49:01;;;;;;;32.67;17.98;;;0.80;99.90;;;;;;5109999;27;20054;-83
2022/12/09 09:51:28;;;;;;;36.90;17.38;;;0.80;99.90;;;;;;5076107;27;20051;-84
2022/12/09 09:53:54;;;;;;;35.10;17.52;;;0.70;99.90;;;;;;5092988;27;20055;-86
2022/12/09 09:56:26;;;;;;;34.47;17.08;;;-0.50;99.90;;;;;;5093075;27;20041;-89
2022/12/09 09:59:15;;;;;;;41.87;18.50;;;0.80;99.90;;;;;;5109799;27;20065;-84
2022/12/09 10:01:49;;;;;;;36.35;18.15;;;0.80;99.90;;;;;;5092460;27;20047;-83
2022/12/09 10:04:17;;;;;;;41.05;18.40;;;0.90;99.90;;;;;;5109889;27;20425;-84
2022/12/09 10:06:55;;;;;;;33.58;17.17;;;1.00;99.90;;;;;;5092335;27;20055;-84
2022/12/09 10:09:39;;;;;;;35.70;18.75;;;1.10;99.90;;;;;;5109468;27;20051;-84
2022/12/09 10:12:04;;;;;;;34.35;17.90;;;1.10;99.90;;;;;;5107994;28;20043;-84
2022/12/09 10:14:57;;;;;;;37.20;18.52;;;1.10;99.90;;;;;;5108745;27;20042;-84
2022/12/09 10:17:58;;;;;;;32.47;16.48;;;1.10;99.90;;;;;;5109752;27;20107;-84
2022/12/09 10:20:27;;;;;;;33.70;17.92;;;1.10;99.90;;;;;;5092252;27;20493;-84
2022/12/09 10:22:58;;;;;;;32.80;16.38;;;1.30;99.90;;;;;;5109114;27;20043;-84
2022/12/09 10:25:27;;;;;;;32.50;16.70;;;2.10;99.90;;;;;;5109608;27;20397;-84
2022/12/09 10:28:27;;;;;;;34.75;17.17;;;1.20;99.90;;;;;;5092221;27;20059;-83
2022/12/09 10:30:54;;;;;;;38.40;16.90;;;1.20;99.90;;;;;;5080968;27;20494;-83
2022/12/09 10:33:29;;;;;;;31.70;17.35;;;1.20;99.90;;;;;;5075327;27;20039;-84
2022/12/09 10:35:55;;;;;;;30.98;15.55;;;1.20;99.90;;;;;;5109141;27;20118;-83
2022/12/09 10:38:21;;;;;;;28.67;15.10;;;1.20;99.90;;;;;;5092011;27;20482;-84
2022/12/09 10:40:53;;;;;;;34.42;18.33;;;1.20;99.90;;;;;;5091902;27;20050;-83
2022/12/09 10:46:04;;;;;;;35.33;17.27;;;1.30;99.90;;;;;;5108787;27;20055;-84
2022/12/09 10:48:33;;;;;;;33.80;17.17;;;1.30;99.90;;;;;;5108911;27;20537;-84
2022/12/09 10:51:14;;;;;;;33.88;17.88;;;1.30;99.90;;;;;;5091630;27;20506;-84
2022/12/09 10:53:47;;;;;;;33.80;16.95;;;2.20;99.90;;;;;;5109023;27;20047;-85
2022/12/09 10:56:28;;;;;;;36.70;16.80;;;1.30;99.90;;;;;;5109398;27;20058;-84
2022/12/09 10:59:17;;;;;;;30.48;16.40;;;1.30;99.90;;;;;;5091999;27;20050;-85
2022/12/09 11:01:52;;;;;;;29.63;15.65;;;1.30;99.90;;;;;;5108689;27;20047;-84
2022/12/09 11:04:39;;;;;;;29.63;15.48;;;1.20;99.90;;;;;;5091535;27;20039;-84
2022/12/09 11:07:10;;;;;;;29.10;16.23;;;1.20;99.90;;;;;;5091012;27;20137;-84
2022/12/09 11:09:42;;;;;;;30.55;15.98;;;1.20;99.90;;;;;;5108074;27;20047;-83
2022/12/09 11:12:38;;;;;;;31.63;15.43;;;1.10;99.90;;;;;;5090814;27;20486;-85
2022/12/09 11:15:30;;;;;;;29.10;15.57;;;1.20;99.90;;;;;;5090203;27;20046;-86
2022/12/09 11:18:15;;;;;;;29.05;15.77;;;1.20;99.90;;;;;;5108097;27;20172;-83
2022/12/09 11:20:41;;;;;;;29.50;15.20;;;1.20;99.90;;;;;;5109819;27;20128;-83
2022/12/09 11:23:19;;;;;;;28.33;15.00;;;1.30;99.90;;;;;;5093266;27;20043;-83
2022/12/09 11:25:56;;;;;;;24.73;14.27;;;2.50;99.90;;;;;;5110471;27;20047;-83
2022/12/09 11:28:27;;;;;;;28.08;14.63;;;1.20;99.90;;;;;;5110833;27;20043;-85
2022/12/09 11:31:06;;;;;;;28.20;15.40;;;1.20;99.90;;;;;;5110806;27;20043;-83
2022/12/09 11:33:36;;;;;;;30.30;15.48;;;1.30;99.90;;;;;;5110150;27;20494;-82
2022/12/09 11:36:21;;;;;;;31.80;15.70;;;1.30;99.90;;;;;;5128913;27;20494;-83
2022/12/09 11:38:50;;;;;;;30.40;15.95;;;1.20;99.90;;;;;;5110425;27;20051;-83
2022/12/09 11:44:29;;;;;;;31.35;16.83;;;1.10;99.90;;;;;;5109923;27;20047;-83
2022/12/09 11:47:11;;;;;;;25.42;15.00;;;2.00;99.90;;;;;;5110607;27;20050;-83
2022/12/09 11:49:59;;;;;;;29.50;15.30;;;1.00;99.90;;;;;;5110794;27;20047;-83
2022/12/09 11:52:28;;;;;;;34.28;16.80;;;1.00;99.90;;;;;;5109824;27;20054;-86
2022/12/09 11:55:19;;;;;;;34.70;17.30;;;1.00;99.90;;;;;;5110500;27;20047;-81
2022/12/09 11:57:53;;;;;;;30.58;16.73;;;1.00;99.90;;;;;;5109501;27;20107;-81
2022/12/09 12:00:30;;;;;;;31.20;15.93;;;1.10;99.90;;;;;;5109502;27;20047;-81
2022/12/09 12:03:18;;;;;;;29.63;15.85;;;1.00;99.90;;;;;;5092545;27;20047;-81
2022/12/09 12:05:49;;;;;;;29.83;16.83;;;1.10;99.90;;;;;;5105523;28;20471;-81
2022/12/09 12:08:46;;;;;;;33.50;18.13;;;1.10;99.90;;;;;;5106287;28;20189;-81
2022/12/09 12:11:18;;;;;;;34.53;18.70;;;1.10;99.90;;;;;;5061873;28;20043;-82
2022/12/09 12:13:47;;;;;;;32.85;17.13;;;1.10;99.90;;;;;;5089592;28;20084;-82
2022/12/09 12:16:47;;;;;;;33.22;17.73;;;1.20;99.90;;;;;;5106598;28;20430;-81
2022/12/09 12:19:25;;;;;;;35.63;16.90;;;2.20;99.90;;;;;;5107006;28;20461;-81
2022/12/09 12:22:28;;;;;;;29.63;16.55;;;1.60;99.90;;;;;;5106635;28;20039;-83
2022/12/09 12:24:54;;;;;;;35.22;15.80;;;1.10;99.90;;;;;;5106868;28;20402;-83
2022/12/09 12:27:35;;;;;;;34.78;16.67;;;1.20;99.90;;;;;;5089701;28;20039;-83
2022/12/09 12:30:14;;;;;;;32.45;16.92;;;1.10;99.90;;;;;;5106846;28;20058;-82
2022/12/09 12:33:13;;;;;;;31.08;17.05;;;1.10;99.90;;;;;;5106362;28;20051;-82
2022/12/09 12:35:54;;;;;;;31.80;16.67;;;1.10;99.90;;;;;;5105269;28;20530;-83
2022/12/09 12:38:46;;;;;;;30.73;16.02;;;1.10;99.90;;;;;;5106327;28;20391;-83
2022/12/09 12:41:49;;;;;;;32.05;17.63;;;1.10;99.90;;;;;;5106508;28;20052;-84
2022/12/09 12:47:42;;;;;;;32.88;16.83;;;1.10;99.90;;;;;;5106430;28;20075;-83
2022/12/09 12:50:38;;;;;;;35.47;18.17;;;1.10;99.90;;;;;;5089182;28;20143;-81
2022/12/09 12:53:25;;;;;;;35.47;17.77;;;1.10;99.90;;;;;;5089012;28;20120;-83
2022/12/09 12:56:07;;;;;;;34.95;17.02;;;1.00;99.90;;;;;;5106133;28;20348;-83